Terminal Aerodrome Forecast
Issued by NWS New Orleans/Baton Rouge, LA

Home | Current Version | Previous Version | Text Only | Print | Product List | Glossary On
Versions: 1 2 3 4 5 6 7 8 9 10 11 12 13 14 15 16 17 18 19 20 21 22 23 24 25 26 27 28 29 30 31 32
000
FTUS44 KLIX 211700
TAFNEW
TAF
KNEW 211723Z 2118/2218 06006KT P6SM BKN013
     FM220100 11006KT P6SM BKN020
     FM220900 14004KT 3SM BR BKN003
     FM221500 17004KT P6SM BKN008
     FM221600 18005KT P6SM BKN003=

USA.gov is the U.S. government's official web portal to all federal, state and local government web resources and services.